KBFL/BFL METAR and TAF weather

Enter ICAO airport designator
Station Type Date Time Source
KBFL METAR 2018/12/11 12:54 UTC NOAA

KBFL 111254Z AUTO 29003KT 5SM BR BKN023 OVC034 08/06 A3017 RMK AO2 SLP217 T00830061


Station Type Date Time Source
KBFL Decoded METAR 2018/12/11 12:54 UTC NOAA

BAKERSFIELD MEADOWS FIELD, CA, United States (KBFL) 35-26N 119-03W 151M
Dec 11, 2018 - 07:54 AM EST / 2018.12.11 1254 UTC
Wind: from the WNW (290 degrees) at 3 MPH (3 KT):0
Visibility: 5 mile(s):0
Sky conditions: overcast
Weather: mist
Temperature: 46.9 F (8.3 C)
Dew Point: 43.0 F (6.1 C)
Relative Humidity: 86%
Pressure (altimeter): 30.17 in. Hg (1021 hPa)
ob: KBFL 111254Z AUTO 29003KT 5SM BR BKN023 OVC034 08/06 A3017 RMK AO2 SLP217 T00830061
cycle: 13

Station Type Date Time Source
KBFL TAF 2018/12/11 12:45 UTC NOAA

TAF KBFL 111142Z 1112/1212 33007KT 5SM BR SCT030 OVC035
FM112200 VRB03KT P6SM SCT030
FM120600 VRB03KT 4SM BR SCT200


Example: see airport list